Time;durP1;ratioP1;P1;durP2;ratioP2;P2;SDS_P1;SDS_P2;PMS_P1;PMS_P2;Temp;Humidity;BMP_temperature;BMP_pressure;BME280_temperature;BME280_humidity;BME280_pressure;Samples;Min_cycle;Max_cycle;Signal;HPM_P1;HPM_P2
2022/03/31 00:00:15;;;;;;;;;;;;;;;9.81;66.95;98374.22;5056489;28;19931;-63
2022/03/31 00:03:00;;;;;;;;;;;;;;;9.80;66.63;98376.81;5055288;28;19975;-64
2022/03/31 00:05:45;;;;;;;;;;;;;;;9.79;66.88;98368.22;5055961;28;20304;-63
2022/03/31 00:08:29;;;;;;;;;;;;;;;9.80;66.66;98375.13;5056842;28;20014;-63
2022/03/31 00:11:13;;;;;;;;;;;;;;;9.82;66.95;98367.31;5055901;28;20457;-63
2022/03/31 00:13:57;;;;;;;;;;;;;;;9.82;66.95;98372.50;5055726;28;19967;-64
2022/03/31 00:16:41;;;;;;;;;;;;;;;9.82;66.67;98369.91;5055380;28;19928;-64
2022/03/31 00:19:25;;;;;;;;;;;;;;;9.81;66.83;98363.00;5055807;28;20320;-64
2022/03/31 00:22:09;;;;;;;;;;;;;;;9.81;66.63;98358.69;5055908;28;20335;-64
2022/03/31 00:24:53;;;;;;;;;;;;;;;9.81;66.56;98358.69;5055149;28;19998;-64
2022/03/31 00:27:38;;;;;;;;;;;;;;;9.81;66.95;98350.94;5056498;28;20010;-63
2022/03/31 00:30:23;;;;;;;;;;;;;;;9.80;66.75;98346.66;5054914;28;20422;-63
2022/03/31 00:33:07;;;;;;;;;;;;;;;9.81;66.98;98350.06;5056131;28;19927;-63
2022/03/31 00:35:54;;;;;;;;;;;;;;;9.80;66.74;98349.25;5055513;28;19967;-64
2022/03/31 00:38:38;;;;;;;;;;;;;;;9.80;66.79;98345.78;5055791;28;19975;-64
2022/03/31 00:41:23;;;;;;;;;;;;;;;9.80;67.03;98343.19;5055842;28;20363;-63
2022/03/31 00:44:07;;;;;;;;;;;;;;;9.79;66.82;98339.75;5055490;28;20021;-63
2022/03/31 00:46:52;;;;;;;;;;;;;;;9.79;66.80;98342.34;5054879;28;20330;-64
2022/03/31 00:49:36;;;;;;;;;;;;;;;9.79;67.03;98333.72;5054881;28;19966;-64
2022/03/31 00:52:20;;;;;;;;;;;;;;;9.79;66.82;98331.13;5055499;28;20035;-64
2022/03/31 00:55:09;;;;;;;;;;;;;;;9.80;66.81;98328.53;5054904;28;20275;-63
2022/03/31 00:57:56;;;;;;;;;;;;;;;9.79;66.70;98319.06;5054762;28;19928;-63
2022/03/31 01:00:40;;;;;;;;;;;;;;;9.79;66.94;98321.66;5055035;28;19928;-64
2022/03/31 01:03:24;;;;;;;;;;;;;;;9.79;66.76;98319.06;5054113;28;19927;-63
2022/03/31 01:06:08;;;;;;;;;;;;;;;9.79;66.99;98325.94;5055775;28;19927;-64
2022/03/31 01:08:52;;;;;;;;;;;;;;;9.78;67.01;98317.34;5054399;28;20063;-64
2022/03/31 01:11:36;;;;;;;;;;;;;;;9.78;66.94;98311.28;5054049;28;20311;-64
2022/03/31 01:14:20;;;;;;;;;;;;;;;9.79;67.09;98307.84;5055455;28;19928;-63
2022/03/31 01:17:04;;;;;;;;;;;;;;;9.78;66.86;98308.69;5054276;28;19928;-63
2022/03/31 01:19:48;;;;;;;;;;;;;;;9.78;67.17;98307.00;5055475;28;19928;-64
2022/03/31 01:22:32;;;;;;;;;;;;;;;9.78;67.30;98291.47;5054691;28;19944;-63
2022/03/31 01:25:17;;;;;;;;;;;;;;;9.78;67.24;98304.41;5055107;28;19927;-64
2022/03/31 01:28:01;;;;;;;;;;;;;;;9.78;66.96;98303.53;5053585;28;20025;-63
2022/03/31 01:30:45;;;;;;;;;;;;;;;9.76;67.15;98288.03;5053845;28;19971;-63
2022/03/31 01:33:29;;;;;;;;;;;;;;;9.77;66.99;98287.16;5053476;28;19927;-64
2022/03/31 01:36:12;;;;;;;;;;;;;;;9.78;67.28;98293.19;5054376;28;19927;-64
2022/03/31 01:38:57;;;;;;;;;;;;;;;9.77;67.27;98278.53;5054553;28;20023;-64
2022/03/31 01:41:41;;;;;;;;;;;;;;;9.77;67.50;98282.00;5054718;28;19974;-64
2022/03/31 01:44:25;;;;;;;;;;;;;;;9.77;67.33;98275.94;5053729;28;20357;-65
2022/03/31 01:47:09;;;;;;;;;;;;;;;9.76;67.06;98280.28;5054012;28;19975;-64
2022/03/31 01:49:54;;;;;;;;;;;;;;;9.75;67.41;98278.56;5054026;28;19970;-63
2022/03/31 01:52:39;;;;;;;;;;;;;;;9.75;67.38;98273.38;5054681;28;19966;-63
2022/03/31 01:55:26;;;;;;;;;;;;;;;9.73;66.97;98262.19;5054317;28;19975;-63
2022/03/31 01:58:10;;;;;;;;;;;;;;;9.73;67.31;98262.19;5053673;28;20445;-63
2022/03/31 02:00:54;;;;;;;;;;;;;;;9.73;67.35;98263.03;5054493;28;20407;-63
2022/03/31 02:03:37;;;;;;;;;;;;;;;9.73;67.44;98265.63;5054334;28;19928;-64
2022/03/31 02:06:21;;;;;;;;;;;;;;;9.73;67.44;98264.78;5053918;28;19928;-64
2022/03/31 02:09:05;;;;;;;;;;;;;;;9.73;67.45;98263.03;5053768;28;20062;-63
2022/03/31 02:11:49;;;;;;;;;;;;;;;9.72;67.28;98263.94;5052934;28;20457;-63
2022/03/31 02:14:37;;;;;;;;;;;;;;;9.73;67.39;98262.19;5052978;28;20011;-63
2022/03/31 02:17:21;;;;;;;;;;;;;;;9.72;67.38;98258.75;5053446;28;20008;-64
2022/03/31 02:20:05;;;;;;;;;;;;;;;9.71;67.31;98259.63;5053194;28;19990;-63
2022/03/31 02:22:49;;;;;;;;;;;;;;;9.71;66.95;98249.28;5053781;28;19928;-64
2022/03/31 02:25:34;;;;;;;;;;;;;;;9.71;67.29;98246.69;5053994;28;19967;-64
2022/03/31 02:28:18;;;;;;;;;;;;;;;9.72;67.59;98234.59;5053453;28;20058;-64
2022/03/31 02:31:02;;;;;;;;;;;;;;;9.71;67.65;98233.75;5053255;28;20318;-66
2022/03/31 02:33:46;;;;;;;;;;;;;;;9.71;67.74;98236.34;5053930;28;19970;-64
2022/03/31 02:36:30;;;;;;;;;;;;;;;9.71;67.57;98231.16;5054111;28;19967;-64
2022/03/31 02:39:14;;;;;;;;;;;;;;;9.71;67.52;98231.16;5053728;28;20016;-63
2022/03/31 02:42:00;;;;;;;;;;;;;;;9.71;67.82;98231.16;5053782;28;19928;-64
2022/03/31 02:44:44;;;;;;;;;;;;;;;9.72;67.30;98232.00;5053631;28;20002;-63
2022/03/31 02:47:29;;;;;;;;;;;;;;;9.72;67.53;98229.41;5053861;28;19967;-65
2022/03/31 02:50:14;;;;;;;;;;;;;;;9.71;67.80;98217.34;5053897;28;19970;-64
2022/03/31 02:56:01;;;;;;;;;;;;;;;9.70;67.66;98220.81;5053294;28;19928;-64
2022/03/31 02:58:45;;;;;;;;;;;;;;;9.70;67.48;98221.69;5053506;28;19983;-64
2022/03/31 03:01:29;;;;;;;;;;;;;;;9.69;67.60;98216.50;5053838;28;20390;-64
2022/03/31 03:04:13;;;;;;;;;;;;;;;9.65;67.58;98210.53;5052780;28;19955;-64
2022/03/31 03:06:58;;;;;;;;;;;;;;;9.62;67.65;98213.13;5053151;28;19923;-64
2022/03/31 03:09:42;;;;;;;;;;;;;;;9.60;67.60;98205.41;5053951;28;20445;-64
2022/03/31 03:12:26;;;;;;;;;;;;;;;9.60;67.81;98202.81;5053168;28;19975;-63
2022/03/31 03:15:10;;;;;;;;;;;;;;;9.61;67.97;98203.66;5052808;28;19943;-64
2022/03/31 03:17:54;;;;;;;;;;;;;;;9.59;67.81;98201.09;5053544;28;20016;-63
2022/03/31 03:20:38;;;;;;;;;;;;;;;9.59;67.90;98203.69;5053703;28;20322;-63
2022/03/31 03:23:22;;;;;;;;;;;;;;;9.58;67.69;98196.78;5053239;28;19963;-64
2022/03/31 03:26:06;;;;;;;;;;;;;;;9.57;67.87;98196.81;5053600;28;20371;-64
2022/03/31 03:28:50;;;;;;;;;;;;;;;9.53;67.81;98193.38;5052573;28;19927;-64
2022/03/31 03:31:34;;;;;;;;;;;;;;;9.52;67.94;98196.84;5052869;28;19928;-64
2022/03/31 03:34:20;;;;;;;;;;;;;;;9.52;67.90;98189.06;5053136;28;20506;-63
2022/03/31 03:37:06;;;;;;;;;;;;;;;9.51;67.87;98194.28;5052139;28;19928;-64
2022/03/31 03:39:50;;;;;;;;;;;;;;;9.50;67.98;98189.97;5052550;28;20272;-64
2022/03/31 03:42:34;;;;;;;;;;;;;;;9.48;68.03;98189.13;5052287;28;20343;-64
2022/03/31 03:45:17;;;;;;;;;;;;;;;9.47;67.98;98193.47;5053591;28;19928;-64
2022/03/31 03:48:01;;;;;;;;;;;;;;;9.48;67.96;98182.25;5053179;28;20069;-63
2022/03/31 03:50:45;;;;;;;;;;;;;;;9.44;68.01;98178.81;5053129;28;19951;-63
2022/03/31 03:53:29;;;;;;;;;;;;;;;9.44;68.05;98181.41;5053003;28;19928;-64
2022/03/31 03:56:13;;;;;;;;;;;;;;;9.44;68.02;98180.56;5053502;28;19928;-64
2022/03/31 03:58:57;;;;;;;;;;;;;;;9.44;68.04;98183.97;5054950;28;19927;-63
2022/03/31 04:01:41;;;;;;;;;;;;;;;9.42;68.07;98180.53;5055904;28;19928;-64
2022/03/31 04:04:29;;;;;;;;;;;;;;;9.43;68.09;98186.59;5056825;28;19927;-64
2022/03/31 04:07:13;;;;;;;;;;;;;;;9.43;68.34;98187.44;5055359;28;19971;-64
2022/03/31 04:09:57;;;;;;;;;;;;;;;9.43;68.25;98184.00;5055617;28;19928;-63
2022/03/31 04:12:42;;;;;;;;;;;;;;;9.42;67.95;98185.72;5055875;28;19975;-64
2022/03/31 04:15:27;;;;;;;;;;;;;;;9.43;68.23;98179.69;5055749;28;20335;-64
2022/03/31 04:18:11;;;;;;;;;;;;;;;9.42;68.28;98183.13;5056711;28;19928;-63
2022/03/31 04:21:01;;;;;;;;;;;;;;;9.41;68.07;98181.44;5056010;28;19928;-63
2022/03/31 04:23:44;;;;;;;;;;;;;;;9.40;68.20;98178.84;5055673;28;19971;-63
2022/03/31 04:26:29;;;;;;;;;;;;;;;9.39;68.28;98177.13;5056269;28;19947;-64
2022/03/31 04:29:13;;;;;;;;;;;;;;;9.39;68.15;98183.19;5055953;28;19943;-64
2022/03/31 04:31:56;;;;;;;;;;;;;;;9.38;68.17;98178.88;5055057;28;20429;-64
2022/03/31 04:34:43;;;;;;;;;;;;;;;9.37;68.14;98179.75;5055040;28;20395;-63
2022/03/31 04:37:27;;;;;;;;;;;;;;;9.36;68.25;98175.44;5055606;28;20279;-63
2022/03/31 04:40:11;;;;;;;;;;;;;;;9.37;68.13;98181.47;5055630;28;19928;-63
2022/03/31 04:42:57;;;;;;;;;;;;;;;9.36;68.38;98177.16;5056203;28;20017;-63
2022/03/31 04:45:41;;;;;;;;;;;;;;;9.36;68.05;98179.75;5055024;28;19928;-63
2022/03/31 04:48:25;;;;;;;;;;;;;;;9.35;68.27;98178.03;5056139;28;20403;-64
2022/03/31 04:51:09;;;;;;;;;;;;;;;9.33;68.48;98180.63;5055997;28;19928;-64
2022/03/31 04:53:54;;;;;;;;;;;;;;;9.32;68.44;98173.75;5055358;28;19951;-64
2022/03/31 04:56:39;;;;;;;;;;;;;;;9.31;68.32;98177.22;5054624;28;19927;-64
2022/03/31 04:59:22;;;;;;;;;;;;;;;9.31;68.44;98174.63;5054452;28;20032;-63
2022/03/31 05:02:06;;;;;;;;;;;;;;;9.31;68.56;98182.38;5055449;28;19927;-64
2022/03/31 05:04:50;;;;;;;;;;;;;;;9.32;68.18;98180.66;5054987;28;20023;-63
2022/03/31 05:07:34;;;;;;;;;;;;;;;9.32;68.14;98175.50;5055443;28;19927;-64
2022/03/31 05:10:21;;;;;;;;;;;;;;;9.32;68.25;98178.09;5054989;28;19928;-64
2022/03/31 05:13:08;;;;;;;;;;;;;;;9.30;68.40;98188.41;5054298;28;20034;-63
2022/03/31 05:15:52;;;;;;;;;;;;;;;9.30;68.52;98188.41;5054645;28;20459;-64
2022/03/31 05:18:36;;;;;;;;;;;;;;;9.31;68.27;98184.13;5054347;28;19982;-64
2022/03/31 05:21:20;;;;;;;;;;;;;;;9.32;68.26;98188.41;5055209;28;19927;-63
2022/03/31 05:24:04;;;;;;;;;;;;;;;9.32;68.34;98185.84;5055353;28;20382;-64
2022/03/31 05:26:53;;;;;;;;;;;;;;;9.32;68.37;98183.25;5054806;28;20390;-64
2022/03/31 05:29:37;;;;;;;;;;;;;;;9.32;68.39;98188.41;5054185;28;19928;-63
2022/03/31 05:32:23;;;;;;;;;;;;;;;9.32;68.40;98184.09;5053723;28;19928;-63
2022/03/31 05:35:08;;;;;;;;;;;;;;;9.32;68.16;98184.09;5053646;28;19928;-64
2022/03/31 05:37:52;;;;;;;;;;;;;;;9.30;68.31;98191.00;5054629;28;19967;-63
2022/03/31 05:40:36;;;;;;;;;;;;;;;9.28;68.31;98179.81;5053737;28;19970;-64
2022/03/31 05:43:21;;;;;;;;;;;;;;;9.26;68.20;98181.59;5054732;28;19928;-63
2022/03/31 05:46:05;;;;;;;;;;;;;;;9.22;68.45;98182.47;5054004;28;19927;-63
2022/03/31 05:48:49;;;;;;;;;;;;;;;9.21;68.45;98191.94;5053869;28;20288;-63
2022/03/31 05:51:33;;;;;;;;;;;;;;;9.19;68.42;98187.66;5054582;28;20029;-64
2022/03/31 05:54:17;;;;;;;;;;;;;;;9.19;68.51;98195.41;5054867;28;19943;-64
2022/03/31 05:57:01;;;;;;;;;;;;;;;9.19;68.43;98190.25;5054842;28;19944;-63
2022/03/31 05:59:45;;;;;;;;;;;;;;;9.19;68.38;98190.25;5053818;28;20430;-63
2022/03/31 06:02:29;;;;;;;;;;;;;;;9.17;68.42;98203.19;5053849;28;19928;-63
2022/03/31 06:05:13;;;;;;;;;;;;;;;9.17;68.67;98200.59;5054127;28;19963;-64
2022/03/31 06:07:57;;;;;;;;;;;;;;;9.16;68.59;98193.72;5053389;28;19927;-63
2022/03/31 06:10:41;;;;;;;;;;;;;;;9.16;68.45;98205.78;5053579;28;19928;-63
2022/03/31 06:13:26;;;;;;;;;;;;;;;9.13;68.43;98207.50;5053758;28;20019;-65
2022/03/31 06:16:11;;;;;;;;;;;;;;;9.13;68.46;98207.50;5054263;28;19928;-64
2022/03/31 06:18:55;;;;;;;;;;;;;;;9.11;68.64;98206.66;5053483;28;20275;-63
2022/03/31 06:21:40;;;;;;;;;;;;;;;9.08;68.29;98203.25;5052716;28;19928;-63
2022/03/31 06:24:23;;;;;;;;;;;;;;;9.06;68.38;98208.44;5053722;28;19951;-63
2022/03/31 06:27:08;;;;;;;;;;;;;;;9.05;68.53;98208.44;5053872;28;20041;-63
2022/03/31 06:29:52;;;;;;;;;;;;;;;9.04;68.65;98207.59;5054236;28;19974;-63
2022/03/31 06:32:36;;;;;;;;;;;;;;;9.03;68.36;98208.44;5053387;28;19931;-63
2022/03/31 06:35:22;;;;;;;;;;;;;;;9.03;68.55;98205.88;5054253;28;19928;-64
2022/03/31 06:38:06;;;;;;;;;;;;;;;9.03;68.66;98212.78;5053141;28;20014;-64
2022/03/31 06:41:10;;;;;;;;;;;;;;;9.01;68.48;98212.75;5052376;28;19967;-64
2022/03/31 06:43:54;;;;;;;;;;;;;;;9.01;68.57;98211.94;5054135;28;19928;-63
2022/03/31 06:46:38;;;;;;;;;;;;;;;8.99;68.62;98210.22;5053906;28;19982;-63
2022/03/31 06:49:23;;;;;;;;;;;;;;;8.98;68.50;98210.19;5053292;28;19967;-63
2022/03/31 06:52:07;;;;;;;;;;;;;;;8.96;68.49;98217.97;5053005;28;19928;-64
2022/03/31 06:54:51;;;;;;;;;;;;;;;8.95;68.66;98213.66;5053231;28;19944;-63
2022/03/31 06:57:35;;;;;;;;;;;;;;;8.94;68.62;98218.84;5053391;28;20058;-63
2022/03/31 07:00:20;;;;;;;;;;;;;;;8.93;68.58;98225.75;5052730;28;19928;-64
2022/03/31 07:03:06;;;;;;;;;;;;;;;8.93;68.37;98222.31;5052512;28;19932;-63
2022/03/31 07:05:53;;;;;;;;;;;;;;;8.92;68.54;98218.00;5052620;28;19927;-64
2022/03/31 07:08:37;;;;;;;;;;;;;;;8.91;68.58;98218.88;5053178;28;19970;-64
2022/03/31 07:11:21;;;;;;;;;;;;;;;8.90;68.58;98222.31;5052352;28;19928;-64
2022/03/31 07:14:05;;;;;;;;;;;;;;;8.91;68.59;98219.72;5052975;28;19971;-64
2022/03/31 07:16:49;;;;;;;;;;;;;;;8.90;68.57;98214.56;5053754;28;19982;-64
2022/03/31 07:19:34;;;;;;;;;;;;;;;8.89;68.45;98218.88;5052822;28;19943;-63
2022/03/31 07:22:18;;;;;;;;;;;;;;;8.88;68.62;98214.56;5052960;28;19992;-63
2022/03/31 07:25:03;;;;;;;;;;;;;;;8.91;68.60;98216.28;5052804;28;19944;-64
2022/03/31 07:27:47;;;;;;;;;;;;;;;8.91;68.65;98216.28;5053317;28;19974;-63
2022/03/31 07:30:31;;;;;;;;;;;;;;;8.87;68.62;98209.41;5052685;28;20015;-64
2022/03/31 07:33:17;;;;;;;;;;;;;;;8.84;68.42;98210.31;5056715;28;19927;-63
2022/03/31 07:36:02;;;;;;;;;;;;;;;8.83;68.52;98214.59;5057461;28;19927;-63
2022/03/31 07:38:48;;;;;;;;;;;;;;;8.85;68.45;98219.78;5056711;28;19967;-64
2022/03/31 07:41:32;;;;;;;;;;;;;;;8.82;68.41;98228.38;5056018;28;19927;-64
2022/03/31 07:44:16;;;;;;;;;;;;;;;8.81;68.50;98218.06;5057167;28;20398;-63
2022/03/31 07:47:00;;;;;;;;;;;;;;;8.80;68.60;98224.94;5057262;28;19928;-64
2022/03/31 07:49:46;;;;;;;;;;;;;;;8.80;68.52;98219.78;5055746;28;19970;-64
2022/03/31 07:52:30;;;;;;;;;;;;;;;8.79;68.59;98219.78;5056165;28;20012;-63
2022/03/31 07:55:15;;;;;;;;;;;;;;;8.78;68.54;98218.97;5055303;28;19927;-63
2022/03/31 07:57:59;;;;;;;;;;;;;;;8.78;68.62;98221.53;5056444;28;19927;-63
2022/03/31 08:00:43;;;;;;;;;;;;;;;8.78;68.70;98220.66;5056947;28;19927;-63
2022/03/31 08:03:27;;;;;;;;;;;;;;;8.79;68.59;98219.78;5055977;28;19967;-63
2022/03/31 08:06:12;;;;;;;;;;;;;;;8.79;68.45;98222.38;5056438;28;19928;-63
2022/03/31 08:08:56;;;;;;;;;;;;;;;8.79;68.49;98220.69;5056545;28;20335;-64
2022/03/31 08:11:41;;;;;;;;;;;;;;;8.78;68.48;98223.25;5056577;28;19966;-63
2022/03/31 08:14:25;;;;;;;;;;;;;;;8.76;68.61;98230.16;5056271;28;19927;-64
2022/03/31 08:17:09;;;;;;;;;;;;;;;8.72;68.38;98224.16;5055386;28;19927;-63
2022/03/31 08:19:53;;;;;;;;;;;;;;;8.72;68.33;98218.97;5055749;28;19927;-63
2022/03/31 08:22:38;;;;;;;;;;;;;;;8.71;68.40;98230.19;5056613;28;20337;-64
2022/03/31 08:25:22;;;;;;;;;;;;;;;8.68;68.48;98233.66;5055512;28;20020;-64
2022/03/31 08:28:06;;;;;;;;;;;;;;;8.65;68.63;98236.22;5055400;28;20405;-64
2022/03/31 08:30:50;;;;;;;;;;;;;;;8.66;68.48;98229.34;5056449;28;20449;-63
2022/03/31 08:33:34;;;;;;;;;;;;;;;8.65;68.45;98235.34;5056026;28;20016;-64
2022/03/31 08:36:18;;;;;;;;;;;;;;;8.63;68.53;98235.38;5055570;28;19928;-64
2022/03/31 08:39:05;;;;;;;;;;;;;;;8.64;68.50;98229.34;5056016;28;19966;-64
2022/03/31 08:41:50;;;;;;;;;;;;;;;8.67;68.43;98228.47;5054766;28;19997;-64
2022/03/31 08:44:35;;;;;;;;;;;;;;;8.64;68.47;98238.84;5055017;28;19975;-64
2022/03/31 08:47:20;;;;;;;;;;;;;;;8.62;68.46;98238.81;5055776;28;20397;-64
2022/03/31 08:50:07;;;;;;;;;;;;;;;8.63;68.49;98239.69;5055036;28;20395;-64
2022/03/31 08:52:53;;;;;;;;;;;;;;;8.62;68.38;98244.00;5054709;28;19974;-63
2022/03/31 08:55:37;;;;;;;;;;;;;;;8.55;68.41;98252.66;5054578;28;19967;-63
2022/03/31 08:58:21;;;;;;;;;;;;;;;8.56;68.36;98246.63;5054458;28;19928;-64
2022/03/31 09:01:05;;;;;;;;;;;;;;;8.57;68.32;98261.22;5055971;28;19928;-64
2022/03/31 09:03:49;;;;;;;;;;;;;;;8.57;68.48;98257.78;5055813;28;20292;-63
2022/03/31 09:06:33;;;;;;;;;;;;;;;8.57;68.38;98257.78;5056191;28;19967;-63
2022/03/31 09:09:17;;;;;;;;;;;;;;;8.56;68.42;98259.53;5054281;28;20312;-64
2022/03/31 09:12:01;;;;;;;;;;;;;;;8.56;68.47;98259.53;5055289;28;20407;-64
2022/03/31 09:14:47;;;;;;;;;;;;;;;8.56;68.32;98264.69;5054792;28;20062;-64
2022/03/31 09:17:37;;;;;;;;;;;;;;;8.57;68.40;98268.97;5054610;28;20464;-63
2022/03/31 09:20:21;;;;;;;;;;;;;;;8.58;68.40;98278.44;5054095;28;19975;-63
2022/03/31 09:23:05;;;;;;;;;;;;;;;8.57;68.47;98275.88;5054016;28;19974;-64
2022/03/31 09:25:52;;;;;;;;;;;;;;;8.57;68.40;98275.88;5054638;28;19927;-64
2022/03/31 09:28:39;;;;;;;;;;;;;;;8.54;68.42;98276.75;5054247;28;19986;-64
2022/03/31 09:31:24;;;;;;;;;;;;;;;8.53;68.33;98286.22;5054592;28;19931;-64
2022/03/31 09:34:08;;;;;;;;;;;;;;;8.52;68.35;98287.06;5053834;28;20415;-64
2022/03/31 09:36:53;;;;;;;;;;;;;;;8.49;68.24;98279.31;5055166;28;19974;-63
2022/03/31 09:39:37;;;;;;;;;;;;;;;8.45;68.28;98285.34;5054407;28;20422;-64
2022/03/31 09:42:21;;;;;;;;;;;;;;;8.44;68.35;98280.19;5055037;28;19955;-63
2022/03/31 09:45:08;;;;;;;;;;;;;;;8.43;68.35;98287.09;5054422;28;20406;-64
2022/03/31 09:47:52;;;;;;;;;;;;;;;8.43;68.27;98289.66;5053570;28;19927;-64
2022/03/31 09:50:38;;;;;;;;;;;;;;;8.42;68.35;98281.91;5053402;28;20307;-63
2022/03/31 09:53:22;;;;;;;;;;;;;;;8.39;68.41;98287.94;5054428;28;20445;-64
2022/03/31 09:56:06;;;;;;;;;;;;;;;8.41;68.34;98282.81;5053531;28;19931;-64
2022/03/31 09:58:51;;;;;;;;;;;;;;;8.40;68.44;98287.09;5053313;28;19928;-64
2022/03/31 10:01:36;;;;;;;;;;;;;;;8.38;68.30;98286.22;5054190;28;20280;-63
2022/03/31 10:04:20;;;;;;;;;;;;;;;8.37;68.46;98282.81;5053455;28;19974;-64
2022/03/31 10:07:04;;;;;;;;;;;;;;;8.38;68.45;98278.47;5053848;28;20019;-63
2022/03/31 10:09:49;;;;;;;;;;;;;;;8.37;68.24;98282.81;5054107;28;19943;-63
2022/03/31 10:12:35;;;;;;;;;;;;;;;8.36;68.49;98277.63;5054267;28;20355;-64
2022/03/31 10:15:23;;;;;;;;;;;;;;;8.35;68.29;98287.09;5052793;28;19975;-63
2022/03/31 10:18:07;;;;;;;;;;;;;;;8.30;68.56;98283.66;5053156;28;19927;-64
2022/03/31 10:20:52;;;;;;;;;;;;;;;8.31;68.33;98284.53;5054027;28;19928;-63
2022/03/31 10:26:40;;;;;;;;;;;;;;;8.30;68.39;98298.31;5053930;28;19928;-63
2022/03/31 10:29:36;;;;;;;;;;;;;;;8.30;68.44;98293.16;5053016;28;19928;-63
2022/03/31 10:32:20;;;;;;;;;;;;;;;8.32;68.60;98292.28;5053208;28;19974;-63
2022/03/31 10:35:04;;;;;;;;;;;;;;;8.28;68.47;98292.28;5053902;28;20429;-64
2022/03/31 10:37:48;;;;;;;;;;;;;;;8.28;68.44;98294.88;5053800;28;20414;-63
2022/03/31 10:40:40;;;;;;;;;;;;;;;8.26;68.52;98296.59;5053342;28;20398;-63
2022/03/31 10:43:26;;;;;;;;;;;;;;;8.22;68.35;98291.44;5053234;28;19966;-63
2022/03/31 10:46:14;;;;;;;;;;;;;;;8.25;68.46;98285.44;5053873;28;20399;-64
2022/03/31 10:49:00;;;;;;;;;;;;;;;8.26;68.41;98287.13;5053559;28;19928;-63
2022/03/31 10:51:45;;;;;;;;;;;;;;;8.25;68.41;98282.84;5052596;28;19975;-63
2022/03/31 10:54:31;;;;;;;;;;;;;;;8.21;68.38;98284.56;5053721;28;19927;-64
2022/03/31 10:57:17;;;;;;;;;;;;;;;8.19;68.54;98281.13;5052500;28;20426;-63
2022/03/31 11:00:01;;;;;;;;;;;;;;;8.21;68.45;98276.81;5053207;28;20023;-64
2022/03/31 11:02:45;;;;;;;;;;;;;;;8.24;68.50;98273.38;5053718;28;20437;-63
2022/03/31 11:05:33;;;;;;;;;;;;;;;8.20;68.48;98282.84;5052936;28;20059;-64
2022/03/31 11:08:23;;;;;;;;;;;;;;;8.25;68.35;98276.81;5056623;28;19927;-63
2022/03/31 11:11:08;;;;;;;;;;;;;;;8.22;68.45;98288.84;5056924;28;20288;-63
2022/03/31 11:13:52;;;;;;;;;;;;;;;8.23;68.66;98282.00;5056649;28;20303;-63
2022/03/31 11:16:37;;;;;;;;;;;;;;;8.21;68.46;98276.81;5056853;28;20398;-64
2022/03/31 11:19:21;;;;;;;;;;;;;;;8.18;68.40;98284.56;5056662;28;19927;-64
2022/03/31 11:22:05;;;;;;;;;;;;;;;8.20;68.57;98277.66;5056937;28;19928;-64
2022/03/31 11:24:53;;;;;;;;;;;;;;;8.23;68.57;98275.09;5056649;28;19944;-64
2022/03/31 11:27:38;;;;;;;;;;;;;;;8.21;68.44;98281.13;5056407;28;19981;-64
2022/03/31 11:30:23;;;;;;;;;;;;;;;8.21;68.34;98279.41;5056311;28;19974;-63
2022/03/31 11:33:10;;;;;;;;;;;;;;;8.17;68.52;98282.88;5055979;28;19928;-64
2022/03/31 11:35:54;;;;;;;;;;;;;;;8.18;68.44;98276.81;5056436;28;20442;-63
2022/03/31 11:38:41;;;;;;;;;;;;;;;8.21;68.63;98279.41;5056761;28;19966;-63
2022/03/31 11:41:35;;;;;;;;;;;;;;;8.20;68.37;98288.00;5056929;28;20279;-63
2022/03/31 11:44:19;;;;;;;;;;;;;;;8.18;68.47;98278.56;5057256;28;20022;-63
2022/03/31 11:47:05;;;;;;;;;;;;;;;8.19;68.38;98275.94;5056340;28;19928;-63
2022/03/31 11:49:58;;;;;;;;;;;;;;;8.20;68.33;98274.25;5055663;28;20406;-64
2022/03/31 11:52:41;;;;;;;;;;;;;;;8.21;68.38;98276.81;5055850;28;19970;-63
2022/03/31 11:55:27;;;;;;;;;;;;;;;8.18;68.39;98270.81;5056812;28;19958;-64
2022/03/31 11:58:11;;;;;;;;;;;;;;;8.19;68.29;98275.09;5055820;28;20027;-63
2022/03/31 12:00:57;;;;;;;;;;;;;;;8.18;68.40;98276.81;5055708;28;19952;-64
2022/03/31 12:03:42;;;;;;;;;;;;;;;8.18;68.36;98275.97;5056304;28;20422;-64
2022/03/31 12:06:26;;;;;;;;;;;;;;;8.18;68.25;98275.97;5056903;28;19928;-63
2022/03/31 12:09:10;;;;;;;;;;;;;;;8.17;68.29;98280.28;5055803;28;19943;-63
2022/03/31 12:11:55;;;;;;;;;;;;;;;8.13;68.36;98276.00;5056499;28;19928;-63
2022/03/31 12:14:42;;;;;;;;;;;;;;;8.12;68.23;98279.44;5056334;28;19975;-64
2022/03/31 12:17:27;;;;;;;;;;;;;;;8.14;68.38;98269.09;5055518;28;19948;-64
2022/03/31 12:20:14;;;;;;;;;;;;;;;8.14;68.54;98277.72;5056038;28;20011;-63
2022/03/31 12:22:58;;;;;;;;;;;;;;;8.14;68.40;98269.09;5056555;28;20322;-63
2022/03/31 12:25:44;;;;;;;;;;;;;;;8.12;68.43;98273.38;5056420;28;19971;-63
2022/03/31 12:28:30;;;;;;;;;;;;;;;8.08;68.34;98275.13;5056371;28;20013;-63
2022/03/31 12:31:29;;;;;;;;;;;;;;;8.09;68.44;98271.69;5055908;28;20033;-63
2022/03/31 12:34:13;;;;;;;;;;;;;;;8.11;68.59;98279.41;5054913;28;20391;-63
2022/03/31 12:37:00;;;;;;;;;;;;;;;8.11;68.42;98282.00;5056153;28;20410;-63
2022/03/31 12:39:44;;;;;;;;;;;;;;;8.10;68.12;98281.16;5056071;28;19930;-63
2022/03/31 12:42:30;;;;;;;;;;;;;;;8.08;68.34;98275.13;5054984;28;19967;-63
2022/03/31 12:45:15;;;;;;;;;;;;;;;8.06;68.33;98269.97;5055809;28;19943;-63
2022/03/31 12:48:06;;;;;;;;;;;;;;;8.10;68.37;98275.16;5055689;28;20016;-63
2022/03/31 12:50:59;;;;;;;;;;;;;;;8.08;68.52;98276.00;5054980;28;19932;-63
2022/03/31 12:53:43;;;;;;;;;;;;;;;8.10;68.39;98273.41;5055591;28;19928;-63
2022/03/31 12:56:28;;;;;;;;;;;;;;;8.10;68.53;98275.16;5054728;28;19932;-63
2022/03/31 12:59:16;;;;;;;;;;;;;;;8.10;68.45;98280.31;5055014;28;19978;-63
2022/03/31 13:02:00;;;;;;;;;;;;;;;8.08;68.40;98282.88;5054383;28;20015;-63
2022/03/31 13:04:45;;;;;;;;;;;;;;;8.07;68.51;98268.25;5055015;28;20006;-63
2022/03/31 13:07:29;;;;;;;;;;;;;;;8.05;68.48;98268.25;5054696;28;19928;-63
2022/03/31 13:10:15;;;;;;;;;;;;;;;8.04;68.62;98269.13;5054269;28;19928;-63
2022/03/31 13:12:59;;;;;;;;;;;;;;;8.02;68.67;98263.09;5053984;28;19928;-63
2022/03/31 13:15:43;;;;;;;;;;;;;;;8.02;68.66;98263.09;5055325;28;19943;-63
2022/03/31 13:18:27;;;;;;;;;;;;;;;8.01;68.61;98261.38;5054338;28;19974;-64
2022/03/31 13:21:11;;;;;;;;;;;;;;;8.00;68.48;98263.97;5055067;28;19967;-63
2022/03/31 13:23:55;;;;;;;;;;;;;;;8.01;68.56;98265.69;5054963;28;19928;-64
2022/03/31 13:26:40;;;;;;;;;;;;;;;8.01;68.79;98263.97;5055064;28;19982;-63
2022/03/31 13:29:24;;;;;;;;;;;;;;;8.01;68.66;98260.53;5054076;28;19928;-64
2022/03/31 13:32:10;;;;;;;;;;;;;;;8.04;68.52;98261.38;5055050;28;19966;-63
2022/03/31 13:34:55;;;;;;;;;;;;;;;8.02;68.73;98262.25;5054175;28;19966;-63
2022/03/31 13:37:41;;;;;;;;;;;;;;;8.04;68.53;98257.94;5053080;28;20261;-64
2022/03/31 13:40:25;;;;;;;;;;;;;;;8.03;68.52;98258.78;5054624;28;19928;-64
2022/03/31 13:43:09;;;;;;;;;;;;;;;8.02;68.53;98264.84;5053816;28;19928;-63
2022/03/31 13:45:53;;;;;;;;;;;;;;;8.02;68.68;98263.09;5053997;28;19944;-63
2022/03/31 13:48:37;;;;;;;;;;;;;;;8.02;68.61;98259.69;5054744;28;20326;-63
2022/03/31 13:51:21;;;;;;;;;;;;;;;8.02;68.84;98257.94;5054820;28;19974;-63
2022/03/31 13:54:06;;;;;;;;;;;;;;;8.03;68.54;98251.06;5053228;28;20024;-63
2022/03/31 13:56:51;;;;;;;;;;;;;;;7.96;68.63;98255.38;5054837;28;20292;-63
2022/03/31 14:02:37;;;;;;;;;;;;;;;7.96;68.43;98260.53;5054100;28;20296;-63
2022/03/31 14:05:21;;;;;;;;;;;;;;;7.95;68.65;98258.81;5055183;28;19959;-63
2022/03/31 14:08:05;;;;;;;;;;;;;;;7.95;68.62;98263.97;5053352;28;20406;-64
2022/03/31 14:10:49;;;;;;;;;;;;;;;7.97;68.40;98253.66;5053846;28;20346;-63
2022/03/31 14:13:33;;;;;;;;;;;;;;;7.95;68.55;98260.53;5054318;28;19928;-63
2022/03/31 14:16:18;;;;;;;;;;;;;;;7.95;68.61;98253.66;5053442;28;19928;-63
2022/03/31 14:19:03;;;;;;;;;;;;;;;7.97;68.73;98253.66;5053241;28;19928;-63
2022/03/31 14:21:48;;;;;;;;;;;;;;;7.98;68.58;98256.22;5054078;28;20365;-63
2022/03/31 14:24:32;;;;;;;;;;;;;;;7.99;68.68;98257.94;5053132;28;19974;-63
2022/03/31 14:27:16;;;;;;;;;;;;;;;7.97;68.74;98254.50;5054104;28;20320;-63
2022/03/31 14:30:00;;;;;;;;;;;;;;;7.99;68.70;98262.25;5053032;28;19927;-64
2022/03/31 14:32:44;;;;;;;;;;;;;;;7.99;68.78;98252.78;5053881;28;19974;-64
2022/03/31 14:35:31;;;;;;;;;;;;;;;8.00;68.63;98256.25;5053756;28;19928;-63
2022/03/31 14:38:16;;;;;;;;;;;;;;;7.99;68.73;98265.69;5052883;28;19928;-64